createdAt,value
2019-02-21T00:01:40.346Z,98656.44
2019-02-21T00:04:15.289Z,98662.30
2019-02-21T00:06:49.894Z,98667.54
2019-02-21T00:09:23.285Z,98666.67
2019-02-21T00:11:57.672Z,98665.16
2019-02-21T00:14:32.278Z,98663.11
2019-02-21T00:17:06.881Z,98670.66
2019-02-21T00:19:40.091Z,98680.15
2019-02-21T00:22:14.509Z,98677.84
2019-02-21T00:24:49.287Z,98677.75
2019-02-21T00:27:23.955Z,98677.75
2019-02-21T00:29:58.673Z,98682.81
2019-02-21T00:35:20.313Z,98678.86
2019-02-21T00:37:55.109Z,98692.27
2019-02-21T00:40:30.136Z,98687.86
2019-02-21T00:43:05.111Z,98689.02
2019-02-21T00:45:39.738Z,98687.64
2019-02-21T00:48:15.708Z,98687.64
2019-02-21T00:50:50.233Z,98693.83
2019-02-21T00:53:24.710Z,98700.14
2019-02-21T00:55:59.320Z,98700.14
2019-02-21T00:58:33.935Z,98704.22
2019-02-21T01:01:08.385Z,98704.77
2019-02-21T01:03:42.792Z,98702.34
2019-02-21T01:06:16.515Z,98702.34
2019-02-21T01:08:51.293Z,98703.51
2019-02-21T01:11:27.763Z,98703.81
2019-02-21T01:14:01.288Z,98702.98
2019-02-21T01:16:36.675Z,98704.23
2019-02-21T01:19:11.311Z,98704.23
2019-02-21T01:21:45.706Z,98704.70
2019-02-21T01:24:20.294Z,98704.81
2019-02-21T01:26:54.722Z,98697.05
2019-02-21T01:29:29.284Z,98696.45
2019-02-21T01:32:03.954Z,98696.45
2019-02-21T01:34:38.360Z,98694.89
2019-02-21T01:37:12.744Z,98698.89
2019-02-21T01:39:47.294Z,98694.88
2019-02-21T01:42:21.700Z,98692.86
2019-02-21T01:44:56.289Z,98696.84
2019-02-21T01:47:30.954Z,98694.30
2019-02-21T01:50:25.674Z,98694.30
2019-02-21T01:53:00.294Z,98695.26
2019-02-21T01:55:34.894Z,98691.42
2019-02-21T01:58:08.116Z,98685.51
2019-02-21T02:00:42.287Z,98683.72
2019-02-21T02:03:17.909Z,98683.58
2019-02-21T02:05:51.277Z,98683.95
2019-02-21T02:08:25.685Z,98684.31
2019-02-21T02:11:00.286Z,98680.83
2019-02-21T02:13:34.960Z,98681.38
2019-02-21T02:16:10.692Z,98679.33
2019-02-21T02:18:45.283Z,98679.33
2019-02-21T02:21:19.741Z,98681.17
2019-02-21T02:23:54.583Z,98678.03
2019-02-21T02:26:28.957Z,98678.03
2019-02-21T02:29:02.273Z,98680.11
2019-02-21T02:31:36.673Z,98660.98
2019-02-21T02:34:11.283Z,98660.98
2019-02-21T02:36:45.681Z,98660.05
2019-02-21T02:39:20.688Z,98660.65
2019-02-21T02:41:55.677Z,98660.56
2019-02-21T02:44:30.682Z,98665.39
2019-02-21T02:47:05.291Z,98668.74
2019-02-21T02:49:39.865Z,98666.72
2019-02-21T02:52:13.294Z,98658.52
2019-02-21T02:54:47.733Z,98657.33
2019-02-21T02:57:22.257Z,98660.20
2019-02-21T02:59:56.993Z,98668.90
2019-02-21T03:02:31.655Z,98658.98
2019-02-21T03:05:06.582Z,98653.30
2019-02-21T03:07:41.131Z,98650.97
2019-02-21T03:10:15.744Z,98648.11
2019-02-21T03:12:50.318Z,98639.98
2019-02-21T03:15:24.943Z,98641.47
2019-02-21T03:17:59.321Z,98642.92
2019-02-21T03:20:34.291Z,98631.55
2019-02-21T03:23:08.881Z,98643.62
2019-02-21T03:25:42.126Z,98643.62
2019-02-21T03:28:16.315Z,98641.84
2019-02-21T03:30:50.940Z,98644.72
2019-02-21T03:33:25.323Z,98645.80
2019-02-21T03:36:00.317Z,98652.86
2019-02-21T03:38:35.854Z,98646.10
2019-02-21T03:41:09.072Z,98649.63
2019-02-21T03:43:42.273Z,98632.36
2019-02-21T03:46:16.678Z,98644.73
2019-02-21T03:48:51.600Z,98646.17
2019-02-21T03:51:26.294Z,98643.54
2019-02-21T03:54:01.279Z,98645.98
2019-02-21T03:56:35.878Z,98648.00
2019-02-21T03:59:09.299Z,98647.59
2019-02-21T04:01:43.668Z,98644.65
2019-02-21T04:04:18.326Z,98644.65
2019-02-21T04:06:53.332Z,98654.71
2019-02-21T04:09:27.899Z,98655.90
2019-02-21T04:12:01.279Z,98655.90
2019-02-21T04:14:35.948Z,98668.16
2019-02-21T04:17:09.555Z,98668.16
2019-02-21T04:19:43.970Z,98674.17
2019-02-21T04:22:19.712Z,98668.27
2019-02-21T04:24:54.339Z,98668.27
2019-02-21T04:27:29.223Z,98671.91
2019-02-21T04:30:03.768Z,98665.94
2019-02-21T04:32:37.116Z,98665.94
2019-02-21T04:35:11.689Z,98665.45
2019-02-21T04:37:46.278Z,98665.45
2019-02-21T04:40:20.878Z,98673.22
2019-02-21T04:42:54.108Z,98676.27
2019-02-21T04:45:28.659Z,98676.27
2019-02-21T04:48:03.259Z,98675.55
2019-02-21T04:50:37.717Z,98671.44
2019-02-21T04:53:12.268Z,98670.54
2019-02-21T04:55:46.897Z,98664.63
2019-02-21T04:58:19.866Z,98665.56
2019-02-21T05:00:55.094Z,98670.23
2019-02-21T05:03:29.802Z,98666.64
2019-02-21T05:06:03.288Z,98666.64
2019-02-21T05:08:37.683Z,98664.15
2019-02-21T05:11:12.676Z,98664.15
2019-02-21T05:13:47.289Z,98661.74
2019-02-21T05:16:21.736Z,98664.81
2019-02-21T05:18:58.730Z,98660.33
2019-02-21T05:21:33.298Z,98660.33
2019-02-21T05:24:07.804Z,98660.73
2019-02-21T05:26:48.278Z,98662.37
2019-02-21T05:29:22.798Z,98663.14
2019-02-21T05:32:10.602Z,98663.14
2019-02-21T05:35:00.651Z,98672.02
2019-02-21T05:37:57.788Z,98667.08
2019-02-21T05:40:51.775Z,98672.75
2019-02-21T05:43:46.864Z,98670.45
2019-02-21T05:46:41.958Z,98673.00
2019-02-21T05:49:46.998Z,98673.00
2019-02-21T05:52:46.312Z,98676.22
2019-02-21T05:56:09.953Z,98677.20
2019-02-21T05:59:18.677Z,98686.62
2019-02-21T06:02:16.879Z,98682.91
2019-02-21T06:05:19.614Z,98686.20
2019-02-21T06:08:19.278Z,98693.69
2019-02-21T06:11:36.679Z,98688.59
2019-02-21T06:14:45.722Z,98692.39
2019-02-21T06:18:12.291Z,98693.40
2019-02-21T06:21:26.408Z,98690.15
2019-02-21T06:24:41.867Z,98690.15
2019-02-21T06:27:38.464Z,98694.28
2019-02-21T06:30:47.129Z,98700.14
2019-02-21T06:33:39.332Z,98704.89
2019-02-21T06:36:31.319Z,98708.69
2019-02-21T06:39:25.157Z,98710.36
2019-02-21T06:42:17.743Z,98710.36
2019-02-21T06:45:09.110Z,98709.48
2019-02-21T06:48:00.292Z,98701.98
2019-02-21T06:50:52.288Z,98704.75
2019-02-21T06:53:44.702Z,98695.48
2019-02-21T06:56:37.330Z,98694.02
2019-02-21T06:59:29.319Z,98692.73
2019-02-21T07:02:22.294Z,98694.30
2019-02-21T07:05:14.672Z,98704.11
2019-02-21T07:08:08.840Z,98704.11
2019-02-21T07:11:06.216Z,98699.57
2019-02-21T07:13:55.757Z,98700.48
2019-02-21T07:16:47.821Z,98699.16
2019-02-21T07:19:39.092Z,98699.16
2019-02-21T07:22:31.580Z,98692.91
2019-02-21T07:25:32.352Z,98694.61
2019-02-21T07:28:23.046Z,98691.34
2019-02-21T07:31:14.022Z,98690.51
2019-02-21T07:34:07.139Z,98681.11
2019-02-21T07:36:59.415Z,98681.11
2019-02-21T07:39:51.882Z,98684.22
2019-02-21T07:42:44.612Z,98679.94
2019-02-21T07:45:37.281Z,98684.69
2019-02-21T07:48:29.700Z,98687.64
2019-02-21T07:51:21.800Z,98687.64
2019-02-21T07:54:15.375Z,98686.52
2019-02-21T07:57:08.640Z,98696.34
2019-02-21T08:00:02.281Z,98697.30
2019-02-21T08:02:54.666Z,98694.02
2019-02-21T08:05:47.599Z,98694.02
2019-02-21T08:08:40.337Z,98708.53
2019-02-21T08:11:32.680Z,98716.28
2019-02-21T08:14:24.955Z,98723.23
2019-02-21T08:17:17.644Z,98726.17
2019-02-21T08:20:11.679Z,98726.17
2019-02-21T08:23:04.259Z,98712.66
2019-02-21T08:25:56.271Z,98711.77
2019-02-21T08:28:48.679Z,98705.72
2019-02-21T08:31:40.279Z,98710.71
2019-02-21T08:34:39.796Z,98716.86
2019-02-21T08:37:31.787Z,98730.59
2019-02-21T08:40:25.111Z,98723.87
2019-02-21T08:43:18.106Z,98726.09
2019-02-21T08:46:10.754Z,98726.09
2019-02-21T08:49:02.949Z,98730.13
2019-02-21T08:51:55.152Z,98730.13
2019-02-21T08:54:45.863Z,98727.47
2019-02-21T08:57:38.293Z,98725.84
2019-02-21T09:00:31.743Z,98731.36
2019-02-21T09:03:24.287Z,98733.38
2019-02-21T09:06:17.128Z,98733.38
2019-02-21T09:09:09.693Z,98742.76
2019-02-21T09:12:02.458Z,98741.97
2019-02-21T09:14:55.281Z,98745.90
2019-02-21T09:17:47.658Z,98746.80
2019-02-21T09:20:41.356Z,98746.80
2019-02-21T09:23:33.731Z,98742.45
2019-02-21T09:26:25.943Z,98742.45
2019-02-21T09:29:18.309Z,98746.59
2019-02-21T09:32:11.319Z,98747.01
2019-02-21T09:35:03.310Z,98748.63
2019-02-21T09:37:55.341Z,98750.97
2019-02-21T09:40:47.787Z,98753.31
2019-02-21T09:43:40.276Z,98753.31
2019-02-21T09:46:32.676Z,98760.66
2019-02-21T09:49:24.691Z,98759.86
2019-02-21T09:52:16.773Z,98759.86
2019-02-21T09:55:10.276Z,98755.97
2019-02-21T09:58:02.319Z,98752.25
2019-02-21T10:00:54.949Z,98749.66
2019-02-21T10:03:47.646Z,98758.12
2019-02-21T10:06:39.937Z,98758.12
2019-02-21T10:09:33.297Z,98748.10
2019-02-21T10:12:25.657Z,98755.78
2019-02-21T10:15:18.645Z,98753.81
2019-02-21T10:18:11.243Z,98748.03
2019-02-21T10:21:03.276Z,98744.81
2019-02-21T10:23:56.872Z,98756.88
2019-02-21T10:26:49.688Z,98757.34
2019-02-21T10:29:42.322Z,98757.34
2019-02-21T10:32:35.113Z,98757.77
2019-02-21T10:35:26.282Z,98762.62
2019-02-21T10:38:18.290Z,98757.52
2019-02-21T10:41:10.657Z,98758.19
2019-02-21T10:44:03.247Z,98758.19
2019-02-21T10:46:55.789Z,98756.08
2019-02-21T10:49:47.746Z,98756.08
2019-02-21T10:52:41.585Z,98753.58
2019-02-21T10:55:33.270Z,98757.69
2019-02-21T10:58:25.271Z,98750.08
2019-02-21T11:01:17.277Z,98750.08
2019-02-21T11:04:09.688Z,98739.64
2019-02-21T11:07:02.273Z,98739.64
2019-02-21T11:09:54.694Z,98730.37
2019-02-21T11:12:47.280Z,98730.37
2019-02-21T11:15:42.052Z,98721.45
2019-02-21T11:18:33.936Z,98711.16
2019-02-21T11:21:27.557Z,98711.16
2019-02-21T11:24:20.258Z,98712.09
2019-02-21T11:27:12.139Z,98714.42
2019-02-21T11:30:03.281Z,98700.58
2019-02-21T11:32:54.249Z,98705.37
2019-02-21T11:35:46.424Z,98705.07
2019-02-21T11:38:38.882Z,98696.77
2019-02-21T11:41:31.582Z,98695.08
2019-02-21T11:44:23.643Z,98682.75
2019-02-21T11:47:15.738Z,98682.75
2019-02-21T11:50:08.672Z,98678.89
2019-02-21T11:53:00.956Z,98678.89
2019-02-21T11:55:52.040Z,98678.30
2019-02-21T11:58:42.997Z,98675.91
2019-02-21T12:01:35.282Z,98675.45
2019-02-21T12:04:27.730Z,98672.00
2019-02-21T12:07:20.349Z,98672.00
2019-02-21T12:10:13.313Z,98675.34
2019-02-21T12:13:05.954Z,98672.30
2019-02-21T12:15:59.130Z,98678.42
2019-02-21T12:18:51.761Z,98675.47
2019-02-21T12:21:44.279Z,98667.69
2019-02-21T12:24:37.270Z,98665.88
2019-02-21T12:27:29.281Z,98658.73
2019-02-21T12:30:22.407Z,98659.20
2019-02-21T12:33:14.857Z,98655.95
2019-02-21T12:36:07.270Z,98656.71
2019-02-21T12:38:59.126Z,98656.44
2019-02-21T12:41:51.811Z,98643.61
2019-02-21T12:44:44.930Z,98652.37
2019-02-21T12:47:49.091Z,98646.05
2019-02-21T12:50:43.682Z,98642.42
2019-02-21T12:53:28.246Z,98636.37
2019-02-21T12:56:20.678Z,98643.37
2019-02-21T12:59:14.279Z,98643.37
2019-02-21T13:02:06.728Z,98646.64
2019-02-21T13:04:58.001Z,98646.64
2019-02-21T13:07:48.862Z,98640.91
2019-02-21T13:10:40.936Z,98646.17
2019-02-21T13:13:33.282Z,98649.16
2019-02-21T13:16:26.278Z,98647.98
2019-02-21T13:19:18.676Z,98639.91
2019-02-21T13:22:10.950Z,98639.91
2019-02-21T13:25:03.338Z,98635.38
2019-02-21T13:27:56.137Z,98632.05
2019-02-21T13:30:48.581Z,98621.33
2019-02-21T13:33:40.922Z,98621.33
2019-02-21T13:36:33.998Z,98619.47
2019-02-21T13:39:25.085Z,98621.91
2019-02-21T13:42:17.271Z,98627.56
2019-02-21T13:45:10.683Z,98627.56
2019-02-21T13:48:03.281Z,98627.01
2019-02-21T13:50:55.679Z,98628.41
2019-02-21T13:53:47.991Z,98628.41
2019-02-21T13:56:40.638Z,98621.97
2019-02-21T14:00:39.695Z,98627.84
2019-02-21T14:03:32.296Z,98636.19
2019-02-21T14:06:25.120Z,98630.27
2019-02-21T14:09:17.545Z,98618.68
2019-02-21T14:12:10.286Z,98618.68
2019-02-21T14:15:00.689Z,98618.94
2019-02-21T14:17:52.753Z,98627.45
2019-02-21T14:20:45.763Z,98629.11
2019-02-21T14:23:37.650Z,98630.17
2019-02-21T14:26:29.889Z,98630.17
2019-02-21T14:29:22.313Z,98631.72
2019-02-21T14:32:15.285Z,98627.80
2019-02-21T14:35:08.885Z,98631.80
2019-02-21T14:38:00.115Z,98627.87
2019-02-21T14:40:52.276Z,98632.31
2019-02-21T14:43:44.679Z,98636.17
2019-02-21T14:46:36.579Z,98630.36
2019-02-21T14:49:29.344Z,98632.21
2019-02-21T14:52:21.943Z,98628.45
2019-02-21T14:55:13.561Z,98628.83
2019-02-21T14:58:05.890Z,98635.36
2019-02-21T15:00:58.608Z,98606.97
2019-02-21T15:03:50.678Z,98614.08
2019-02-21T15:06:43.587Z,98614.08
2019-02-21T15:09:36.333Z,98617.00
2019-02-21T15:12:29.126Z,98621.72
2019-02-21T15:15:22.119Z,98609.13
2019-02-21T15:18:15.289Z,98617.40
2019-02-21T15:21:08.118Z,98610.36
2019-02-21T15:25:59.981Z,98616.67
2019-02-21T15:28:52.764Z,98616.67
2019-02-21T15:31:45.949Z,98610.25
2019-02-21T15:34:38.291Z,98610.28
2019-02-21T15:37:30.945Z,98613.08
2019-02-21T15:40:23.297Z,98621.47
2019-02-21T15:45:09.643Z,98617.78
2019-02-21T15:48:01.775Z,98617.56
2019-02-21T15:50:53.951Z,98619.39
2019-02-21T15:53:46.273Z,98622.41
2019-02-21T15:56:39.135Z,98629.83
2019-02-21T15:59:31.680Z,98619.95
2019-02-21T16:02:23.936Z,98624.52
2019-02-21T16:05:15.267Z,98627.91
2019-02-21T16:08:09.268Z,98638.16
2019-02-21T16:11:04.232Z,98641.81
2019-02-21T16:14:03.241Z,98644.11
2019-02-21T16:17:26.778Z,98649.41
2019-02-21T16:20:19.323Z,98643.16
2019-02-21T16:23:13.290Z,98649.78
2019-02-21T16:28:33.701Z,98641.61
2019-02-21T16:31:27.309Z,98644.52
2019-02-21T16:34:20.354Z,98639.92
2019-02-21T16:37:12.882Z,98646.55
2019-02-21T16:40:04.270Z,98649.88
2019-02-21T16:42:56.594Z,98650.63
2019-02-21T16:45:53.662Z,98656.67
2019-02-21T16:51:27.898Z,98666.78
2019-02-21T16:54:20.152Z,98666.78
2019-02-21T16:57:12.669Z,98660.53
2019-02-21T17:00:05.329Z,98654.00
2019-02-21T17:02:59.279Z,98662.30
2019-02-21T17:05:51.333Z,98661.65
2019-02-21T17:08:43.302Z,98667.72
2019-02-21T17:11:36.354Z,98676.38
2019-02-21T17:14:28.793Z,98669.88
2019-02-21T17:17:21.315Z,98675.80
2019-02-21T17:20:16.110Z,98675.11
2019-02-21T17:23:07.046Z,98673.91
2019-02-21T17:25:59.277Z,98673.91
2019-02-21T17:28:52.544Z,98686.61
2019-02-21T17:32:06.340Z,98691.80
2019-02-21T17:34:58.953Z,98699.00
2019-02-21T17:37:50.926Z,98699.00
2019-02-21T17:40:42.967Z,98705.28
2019-02-21T17:43:35.301Z,98717.08
2019-02-21T17:46:27.334Z,98718.58
2019-02-21T17:49:18.421Z,98722.00
2019-02-21T17:52:10.674Z,98720.55
2019-02-21T17:55:02.739Z,98720.55
2019-02-21T17:57:55.887Z,98738.03
2019-02-21T18:00:48.280Z,98734.36
2019-02-21T18:03:40.283Z,98738.20
2019-02-21T18:06:30.858Z,98736.70
2019-02-21T18:09:22.068Z,98734.80
2019-02-21T18:12:14.264Z,98734.95
2019-02-21T18:15:06.946Z,98732.61
2019-02-21T18:17:59.128Z,98733.45
2019-02-21T18:20:51.349Z,98725.28
2019-02-21T18:23:43.704Z,98719.20
2019-02-21T18:26:36.265Z,98720.40
2019-02-21T18:29:28.673Z,98716.88
2019-02-21T18:32:22.336Z,98716.88
2019-02-21T18:35:14.527Z,98716.98
2019-02-21T18:38:06.781Z,98719.56
2019-02-21T18:40:59.282Z,98714.73
2019-02-21T18:43:51.665Z,98717.15
2019-02-21T18:46:44.279Z,98717.15
2019-02-21T18:49:36.721Z,98725.86
2019-02-21T18:52:28.952Z,98725.86
2019-02-21T18:55:21.681Z,98708.18
2019-02-21T18:58:13.784Z,98706.98
2019-02-21T19:01:07.312Z,98706.98
2019-02-21T19:04:00.438Z,98706.98
2019-02-21T19:06:52.779Z,98709.54
2019-02-21T19:09:43.695Z,98710.06
2019-02-21T19:12:36.421Z,98699.46
2019-02-21T19:15:29.944Z,98704.02
2019-02-21T19:18:24.210Z,98704.02
2019-02-21T19:21:15.888Z,98704.55
2019-02-21T19:24:08.290Z,98704.55
2019-02-21T19:27:00.685Z,98711.63
2019-02-21T19:29:54.089Z,98697.13
2019-02-21T19:32:47.720Z,98700.06
2019-02-21T19:35:39.931Z,98703.67
2019-02-21T19:38:33.278Z,98700.06
2019-02-21T19:41:25.703Z,98702.05
2019-02-21T19:44:18.277Z,98702.05
2019-02-21T19:47:10.884Z,98698.18
2019-02-21T19:50:04.280Z,98699.39
2019-02-21T19:52:56.928Z,98702.75
2019-02-21T19:58:36.867Z,98698.58
2019-02-21T20:01:27.858Z,98700.14
2019-02-21T20:04:19.941Z,98703.17
2019-02-21T20:07:12.267Z,98695.33
2019-02-21T20:10:06.324Z,98700.06
2019-02-21T20:13:01.280Z,98702.47
2019-02-21T20:15:52.012Z,98702.47
2019-02-21T20:18:44.384Z,98701.16
2019-02-21T20:21:36.754Z,98701.94
2019-02-21T20:24:29.126Z,98701.94
2019-02-21T20:27:20.069Z,98701.58
2019-02-21T20:30:15.787Z,98705.26
2019-02-21T20:33:08.099Z,98710.64
2019-02-21T20:36:00.462Z,98710.64
2019-02-21T20:38:53.447Z,98710.45
2019-02-21T20:41:46.777Z,98706.31
2019-02-21T20:44:39.291Z,98706.31
2019-02-21T20:47:31.897Z,98711.59
2019-02-21T20:50:23.008Z,98708.38
2019-02-21T20:53:15.980Z,98708.38
2019-02-21T20:57:16.952Z,98712.27
2019-02-21T21:00:12.355Z,98709.69
2019-02-21T21:03:05.310Z,98710.28
2019-02-21T21:05:58.109Z,98709.68
2019-02-21T21:08:50.350Z,98710.53
2019-02-21T21:11:42.928Z,98717.50
2019-02-21T21:14:35.099Z,98711.72
2019-02-21T21:17:25.793Z,98717.12
2019-02-21T21:20:18.503Z,98717.90
2019-02-21T21:23:10.939Z,98726.38
2019-02-21T21:26:03.303Z,98726.38
2019-02-21T21:28:55.822Z,98723.42
2019-02-21T21:31:47.398Z,98723.42
2019-02-21T21:34:38.281Z,98721.02
2019-02-21T21:37:30.899Z,98730.20
2019-02-21T21:40:22.418Z,98726.31
2019-02-21T21:43:15.555Z,98735.37
2019-02-21T21:46:08.288Z,98735.37
2019-02-21T22:03:39.969Z,98729.98
2019-02-21T22:06:32.784Z,98729.98
2019-02-21T22:09:25.534Z,98722.03
2019-02-21T22:12:19.304Z,98719.19
2019-02-21T22:15:12.395Z,98716.53
2019-02-21T22:18:04.771Z,98714.55
2019-02-21T22:20:56.756Z,98714.55
2019-02-21T22:23:49.294Z,98718.70
2019-02-21T22:26:41.779Z,98724.48
2019-02-21T22:29:34.316Z,98724.48
2019-02-21T22:32:26.751Z,98715.08
2019-02-21T22:35:19.326Z,98714.03
2019-02-21T22:38:12.081Z,98718.77
2019-02-21T22:41:03.269Z,98708.27
2019-02-21T22:43:55.963Z,98716.94
2019-02-21T22:46:48.525Z,98716.94
2019-02-21T22:49:41.374Z,98713.75
2019-02-21T22:52:33.956Z,98712.09
2019-02-21T22:55:10.267Z,98712.09
2019-02-21T22:57:44.963Z,98714.14
2019-02-21T23:01:01.057Z,98709.64
2019-02-21T23:04:23.290Z,98722.41
2019-02-21T23:07:47.705Z,98724.82
2019-02-21T23:10:22.469Z,98715.02
2019-02-21T23:12:57.295Z,98715.58
2019-02-21T23:15:33.122Z,98718.52
2019-02-21T23:18:07.964Z,98717.67
2019-02-21T23:20:42.363Z,98717.67
2019-02-21T23:23:17.288Z,98715.41
2019-02-21T23:25:51.691Z,98711.55
2019-02-21T23:28:26.291Z,98716.89
2019-02-21T23:31:00.966Z,98723.44
2019-02-21T23:33:36.294Z,98721.10
2019-02-21T23:36:10.653Z,98709.04
2019-02-21T23:38:45.267Z,98709.04
2019-02-21T23:41:19.719Z,98715.27
2019-02-21T23:43:52.879Z,98716.30
2019-02-21T23:46:27.288Z,98716.83
2019-02-21T23:49:01.979Z,98720.79
2019-02-21T23:51:36.676Z,98720.92
2019-02-21T23:54:11.283Z,98720.92
2019-02-21T23:56:45.753Z,98723.97
2019-02-21T23:59:21.416Z,98723.97
